sensor_id;sensor_type;location;lat;lon;timestamp;pressure;altitude;pressure_sealevel;temperature;humidity
18795;BME280;29610;49.022;12.114;2023-03-01T00:01:52;98550.47;;;1.05;100.00
18795;BME280;29610;49.022;12.114;2023-03-01T00:04:21;98553.13;;;1.05;100.00
18795;BME280;29610;49.022;12.114;2023-03-01T00:06:51;98553.22;;;0.94;100.00
18795;BME280;29610;49.022;12.114;2023-03-01T00:09:19;98555.03;;;1.05;100.00
18795;BME280;29610;49.022;12.114;2023-03-01T00:11:48;98560.38;;;1.05;100.00
18795;BME280;29610;49.022;12.114;2023-03-01T00:14:17;98557.25;;;0.96;100.00
18795;BME280;29610;49.022;12.114;2023-03-01T00:16:46;98555.88;;;0.94;100.00
18795;BME280;29610;49.022;12.114;2023-03-01T00:19:18;98545.72;;;0.96;100.00
18795;BME280;29610;49.022;12.114;2023-03-01T00:21:47;98543.06;;;0.96;100.00
18795;BME280;29610;49.022;12.114;2023-03-01T00:24:17;98543.00;;;0.91;100.00
18795;BME280;29610;49.022;12.114;2023-03-01T00:26:46;98539.63;;;0.84;100.00
18795;BME280;29610;49.022;12.114;2023-03-01T00:29:15;98545.56;;;0.86;100.00
18795;BME280;29610;49.022;12.114;2023-03-01T00:31:44;98542.19;;;0.79;100.00
18795;BME280;29610;49.022;12.114;2023-03-01T00:34:12;98536.34;;;0.65;100.00
18795;BME280;29610;49.022;12.114;2023-03-01T00:36:41;98539.00;;;0.65;100.00
18795;BME280;29610;49.022;12.114;2023-03-01T00:39:14;98541.56;;;0.72;100.00
18795;BME280;29610;49.022;12.114;2023-03-01T00:41:44;98538.16;;;0.76;100.00
18795;BME280;29610;49.022;12.114;2023-03-01T00:44:12;98542.34;;;0.72;100.00
18795;BME280;29610;49.022;12.114;2023-03-01T00:46:41;98541.75;;;0.70;100.00
18795;BME280;29610;49.022;12.114;2023-03-01T00:49:10;98534.41;;;0.77;100.00
18795;BME280;29610;49.022;12.114;2023-03-01T00:51:39;98527.94;;;0.73;100.00
18795;BME280;29610;49.022;12.114;2023-03-01T00:54:09;98533.03;;;0.75;100.00
18795;BME280;29610;49.022;12.114;2023-03-01T00:56:38;98527.38;;;0.88;100.00
18795;BME280;29610;49.022;12.114;2023-03-01T00:59:10;98533.94;;;0.80;100.00
18795;BME280;29610;49.022;12.114;2023-03-01T01:01:40;98524.63;;;0.83;100.00
18795;BME280;29610;49.022;12.114;2023-03-01T01:04:12;98526.28;;;0.72;100.00
18795;BME280;29610;49.022;12.114;2023-03-01T01:06:43;98523.38;;;0.74;100.00
18795;BME280;29610;49.022;12.114;2023-03-01T01:09:15;98522.88;;;0.77;100.00
18795;BME280;29610;49.022;12.114;2023-03-01T01:11:48;98517.78;;;0.75;100.00
18795;BME280;29610;49.022;12.114;2023-03-01T01:14:19;98517.00;;;0.75;100.00
18795;BME280;29610;49.022;12.114;2023-03-01T01:16:48;98510.00;;;0.74;100.00
18795;BME280;29610;49.022;12.114;2023-03-01T01:19:17;98518.41;;;0.66;100.00
18795;BME280;29610;49.022;12.114;2023-03-01T01:21:45;98508.13;;;0.74;100.00
18795;BME280;29610;49.022;12.114;2023-03-01T01:24:16;98501.31;;;0.67;100.00
18795;BME280;29610;49.022;12.114;2023-03-01T01:26:48;98502.16;;;0.56;100.00
18795;BME280;29610;49.022;12.114;2023-03-01T01:29:18;98494.69;;;0.58;100.00
18795;BME280;29610;49.022;12.114;2023-03-01T01:31:47;98494.28;;;0.49;100.00
18795;BME280;29610;49.022;12.114;2023-03-01T01:34:19;98493.69;;;0.47;100.00
18795;BME280;29610;49.022;12.114;2023-03-01T01:36:49;98491.59;;;0.49;100.00
18795;BME280;29610;49.022;12.114;2023-03-01T01:39:20;98492.69;;;0.37;100.00
18795;BME280;29610;49.022;12.114;2023-03-01T01:41:49;98480.56;;;0.46;100.00
18795;BME280;29610;49.022;12.114;2023-03-01T01:44:23;98478.25;;;0.49;100.00
18795;BME280;29610;49.022;12.114;2023-03-01T01:46:57;98479.03;;;0.50;100.00
18795;BME280;29610;49.022;12.114;2023-03-01T01:49:32;98482.56;;;0.39;100.00
18795;BME280;29610;49.022;12.114;2023-03-01T01:52:10;98475.50;;;0.33;100.00
18795;BME280;29610;49.022;12.114;2023-03-01T01:54:44;98466.88;;;0.31;100.00
18795;BME280;29610;49.022;12.114;2023-03-01T01:57:21;98470.63;;;0.30;100.00
18795;BME280;29610;49.022;12.114;2023-03-01T01:59:56;98465.63;;;0.33;100.00
18795;BME280;29610;49.022;12.114;2023-03-01T02:02:26;98470.63;;;0.30;100.00
18795;BME280;29610;49.022;12.114;2023-03-01T02:05:03;98460.97;;;0.29;100.00
18795;BME280;29610;49.022;12.114;2023-03-01T02:07:39;98461.53;;;0.31;100.00
18795;BME280;29610;49.022;12.114;2023-03-01T02:10:09;98459.00;;;0.24;100.00
18795;BME280;29610;49.022;12.114;2023-03-01T02:12:39;98460.06;;;0.23;100.00
18795;BME280;29610;49.022;12.114;2023-03-01T02:15:10;98460.06;;;0.23;100.00
18795;BME280;29610;49.022;12.114;2023-03-01T02:17:39;98451.09;;;0.18;100.00
18795;BME280;29610;49.022;12.114;2023-03-01T02:20:20;98449.63;;;0.10;100.00
18795;BME280;29610;49.022;12.114;2023-03-01T02:22:53;98445.06;;;0.22;100.00
18795;BME280;29610;49.022;12.114;2023-03-01T02:25:31;98440.72;;;0.05;100.00
18795;BME280;29610;49.022;12.114;2023-03-01T02:28:21;98451.81;;;0.13;100.00
18795;BME280;29610;49.022;12.114;2023-03-01T02:30:51;98438.28;;;0.03;100.00
18795;BME280;29610;49.022;12.114;2023-03-01T02:33:39;98427.00;;;0.01;100.00
18795;BME280;29610;49.022;12.114;2023-03-01T02:36:15;98432.72;;;-0.07;100.00
18795;BME280;29610;49.022;12.114;2023-03-01T02:38:48;98427.72;;;-0.04;100.00
18795;BME280;29610;49.022;12.114;2023-03-01T02:41:20;98429.69;;;-0.11;100.00
18795;BME280;29610;49.022;12.114;2023-03-01T02:43:51;98431.31;;;-0.10;100.00
18795;BME280;29610;49.022;12.114;2023-03-01T02:46:23;98429.09;;;-0.13;100.00
18795;BME280;29610;49.022;12.114;2023-03-01T02:48:54;98420.16;;;-0.07;100.00
18795;BME280;29610;49.022;12.114;2023-03-01T02:51:45;98436.66;;;-0.10;100.00
18795;BME280;29610;49.022;12.114;2023-03-01T02:54:25;98432.97;;;-0.20;100.00
18795;BME280;29610;49.022;12.114;2023-03-01T02:56:57;98432.13;;;-0.09;100.00
18795;BME280;29610;49.022;12.114;2023-03-01T02:59:33;98426.19;;;-0.11;100.00
18795;BME280;29610;49.022;12.114;2023-03-01T03:02:19;98424.13;;;-0.09;100.00
18795;BME280;29610;49.022;12.114;2023-03-01T03:05:16;98425.75;;;-0.08;100.00
18795;BME280;29610;49.022;12.114;2023-03-01T03:07:47;98421.44;;;-0.09;100.00
18795;BME280;29610;49.022;12.114;2023-03-01T03:10:22;98422.16;;;-0.14;100.00
18795;BME280;29610;49.022;12.114;2023-03-01T03:12:53;98417.75;;;-0.08;100.00
18795;BME280;29610;49.022;12.114;2023-03-01T03:15:26;98421.09;;;-0.13;100.00
18795;BME280;29610;49.022;12.114;2023-03-01T03:17:58;98413.56;;;-0.16;100.00
18795;BME280;29610;49.022;12.114;2023-03-01T03:20:28;98407.44;;;-0.28;100.00
18795;BME280;29610;49.022;12.114;2023-03-01T03:22:58;98411.72;;;-0.38;100.00
18795;BME280;29610;49.022;12.114;2023-03-01T03:25:28;98404.66;;;-0.56;100.00
18795;BME280;29610;49.022;12.114;2023-03-01T03:27:57;98410.94;;;-0.62;100.00
18795;BME280;29610;49.022;12.114;2023-03-01T03:30:31;98413.59;;;-0.73;100.00
18795;BME280;29610;49.022;12.114;2023-03-01T03:32:59;98402.81;;;-0.67;100.00
18795;BME280;29610;49.022;12.114;2023-03-01T03:35:31;98405.25;;;-0.65;100.00
18795;BME280;29610;49.022;12.114;2023-03-01T03:38:04;98405.81;;;-0.52;100.00
18795;BME280;29610;49.022;12.114;2023-03-01T03:40:37;98407.31;;;-0.56;100.00
18795;BME280;29610;49.022;12.114;2023-03-01T03:43:09;98405.00;;;-0.52;100.00
18795;BME280;29610;49.022;12.114;2023-03-01T03:45:39;98405.72;;;-0.57;100.00
18795;BME280;29610;49.022;12.114;2023-03-01T03:48:09;98406.53;;;-0.68;100.00
18795;BME280;29610;49.022;12.114;2023-03-01T03:50:39;98408.72;;;-0.65;100.00
18795;BME280;29610;49.022;12.114;2023-03-01T03:53:11;98402.81;;;-0.67;100.00
18795;BME280;29610;49.022;12.114;2023-03-01T03:55:40;98402.94;;;-0.62;100.00
18795;BME280;29610;49.022;12.114;2023-03-01T03:58:10;98408.16;;;-0.67;100.00
18795;BME280;29610;49.022;12.114;2023-03-01T04:00:43;98404.44;;;-0.66;100.00
18795;BME280;29610;49.022;12.114;2023-03-01T04:03:15;98394.78;;;-0.67;100.00
18795;BME280;29610;49.022;12.114;2023-03-01T04:05:46;98402.69;;;-0.60;100.00
18795;BME280;29610;49.022;12.114;2023-03-01T04:08:18;98397.34;;;-0.60;100.00
18795;BME280;29610;49.022;12.114;2023-03-01T04:10:50;98389.09;;;-0.59;100.00
18795;BME280;29610;49.022;12.114;2023-03-01T04:13:21;98390.75;;;-0.58;100.00
18795;BME280;29610;49.022;12.114;2023-03-01T04:15:52;98392.72;;;-0.65;100.00
18795;BME280;29610;49.022;12.114;2023-03-01T04:18:23;98388.19;;;-0.53;100.00
18795;BME280;29610;49.022;12.114;2023-03-01T04:20:53;98392.38;;;-0.57;100.00
18795;BME280;29610;49.022;12.114;2023-03-01T04:23:22;98391.06;;;-0.54;100.00
18795;BME280;29610;49.022;12.114;2023-03-01T04:25:54;98390.75;;;-0.58;100.00
18795;BME280;29610;49.022;12.114;2023-03-01T04:28:27;98387.97;;;-0.63;100.00
18795;BME280;29610;49.022;12.114;2023-03-01T04:30:58;98389.69;;;-0.68;100.00
18795;BME280;29610;49.022;12.114;2023-03-01T04:33:33;98389.56;;;-0.62;100.00
18795;BME280;29610;49.022;12.114;2023-03-01T04:36:02;98393.78;;;-0.66;100.00
18795;BME280;29610;49.022;12.114;2023-03-01T04:38:32;98400.00;;;-0.72;100.00
18795;BME280;29610;49.022;12.114;2023-03-01T04:41:01;98388.44;;;-0.66;100.00
18795;BME280;29610;49.022;12.114;2023-03-01T04:43:30;98388.75;;;-0.62;100.00
18795;BME280;29610;49.022;12.114;2023-03-01T04:46:02;98393.06;;;-0.61;100.00
18795;BME280;29610;49.022;12.114;2023-03-01T04:48:33;98390.75;;;-0.58;100.00
18795;BME280;29610;49.022;12.114;2023-03-01T04:51:03;98392.47;;;-0.75;100.00
18795;BME280;29610;49.022;12.114;2023-03-01T04:53:32;98386.78;;;-0.67;100.00
18795;BME280;29610;49.022;12.114;2023-03-01T04:56:04;98393.66;;;-0.71;100.00
18795;BME280;29610;49.022;12.114;2023-03-01T04:58:33;98395.38;;;-0.76;100.00
18795;BME280;29610;49.022;12.114;2023-03-01T05:01:09;98386.34;;;-0.75;100.00
18795;BME280;29610;49.022;12.114;2023-03-01T05:03:43;98392.16;;;-0.78;100.00
18795;BME280;29610;49.022;12.114;2023-03-01T05:06:13;98394.00;;;-0.79;100.00
18795;BME280;29610;49.022;12.114;2023-03-01T05:08:43;98393.41;;;-0.69;100.00
18795;BME280;29610;49.022;12.114;2023-03-01T05:11:12;98390.06;;;-0.88;100.00
18795;BME280;29610;49.022;12.114;2023-03-01T05:13:41;98393.28;;;-0.86;100.00
18795;BME280;29610;49.022;12.114;2023-03-01T05:16:11;98392.94;;;-0.78;100.00
18795;BME280;29610;49.022;12.114;2023-03-01T05:18:41;98389.69;;;-0.80;100.00
18795;BME280;29610;49.022;12.114;2023-03-01T05:21:12;98382.63;;;-0.86;100.00
18795;BME280;29610;49.022;12.114;2023-03-01T05:23:44;98381.25;;;-0.88;100.00
18795;BME280;29610;49.022;12.114;2023-03-01T05:26:15;98382.72;;;-0.81;100.00
18795;BME280;29610;49.022;12.114;2023-03-01T05:29:00;98378.31;;;-0.98;100.00
18795;BME280;29610;49.022;12.114;2023-03-01T05:31:30;98383.56;;;-0.92;100.00
18795;BME280;29610;49.022;12.114;2023-03-01T05:33:59;98380.06;;;-0.92;100.00
18795;BME280;29610;49.022;12.114;2023-03-01T05:36:27;98379.03;;;-0.91;100.00
18795;BME280;29610;49.022;12.114;2023-03-01T05:38:56;98369.06;;;-0.96;100.00
18795;BME280;29610;49.022;12.114;2023-03-01T05:41:25;98366.94;;;-0.94;100.00
18795;BME280;29610;49.022;12.114;2023-03-01T05:43:54;98370.31;;;-0.98;100.00
18795;BME280;29610;49.022;12.114;2023-03-01T05:46:22;98380.78;;;-0.85;100.00
18795;BME280;29610;49.022;12.114;2023-03-01T05:48:53;98376.03;;;-0.83;100.00
18795;BME280;29610;49.022;12.114;2023-03-01T05:51:22;98372.41;;;-0.89;100.00
18795;BME280;29610;49.022;12.114;2023-03-01T05:53:51;98364.53;;;-0.95;100.00
18795;BME280;29610;49.022;12.114;2023-03-01T05:56:19;98364.88;;;-0.92;100.00
18795;BME280;29610;49.022;12.114;2023-03-01T05:58:49;98365.56;;;-0.96;100.00
18795;BME280;29610;49.022;12.114;2023-03-01T06:01:18;98361.38;;;-0.92;100.00
18795;BME280;29610;49.022;12.114;2023-03-01T06:03:47;98366.94;;;-0.94;100.00
18795;BME280;29610;49.022;12.114;2023-03-01T06:06:17;98364.75;;;-0.97;100.00
18795;BME280;29610;49.022;12.114;2023-03-01T06:08:45;98361.84;;;-0.95;100.00
18795;BME280;29610;49.022;12.114;2023-03-01T06:11:14;98364.06;;;-0.92;100.00
18795;BME280;29610;49.022;12.114;2023-03-01T06:13:43;98369.50;;;-0.87;100.00
18795;BME280;29610;49.022;12.114;2023-03-01T06:16:13;98371.38;;;-0.88;100.00
18795;BME280;29610;49.022;12.114;2023-03-01T06:18:42;98361.50;;;-0.76;100.00
18795;BME280;29610;49.022;12.114;2023-03-01T06:21:11;98371.13;;;-0.75;100.00
18795;BME280;29610;49.022;12.114;2023-03-01T06:23:41;98367.19;;;-0.72;100.00
18795;BME280;29610;49.022;12.114;2023-03-01T06:26:10;98365.19;;;-0.65;100.00
18795;BME280;29610;49.022;12.114;2023-03-01T06:28:38;98368.94;;;-0.66;100.00
18795;BME280;29610;49.022;12.114;2023-03-01T06:31:07;98368.44;;;-0.52;100.00
18795;BME280;29610;49.022;12.114;2023-03-01T06:33:36;98369.81;;;-0.49;100.00
18795;BME280;29610;49.022;12.114;2023-03-01T06:36:06;98373.19;;;-0.42;100.00
18795;BME280;29610;49.022;12.114;2023-03-01T06:38:36;98369.22;;;-0.28;100.00
18795;BME280;29610;49.022;12.114;2023-03-01T06:41:06;98374.69;;;-0.35;100.00
18795;BME280;29610;49.022;12.114;2023-03-01T06:43:35;98373.97;;;-0.30;100.00
18795;BME280;29610;49.022;12.114;2023-03-01T06:46:05;98373.84;;;-0.24;100.00
18795;BME280;29610;49.022;12.114;2023-03-01T06:48:34;98375.13;;;-0.15;100.00
18795;BME280;29610;49.022;12.114;2023-03-01T06:51:03;98369.81;;;0.02;100.00
18795;BME280;29610;49.022;12.114;2023-03-01T06:53:32;98363.34;;;-0.02;100.00
18795;BME280;29610;49.022;12.114;2023-03-01T06:56:01;98371.84;;;-0.05;100.00
18795;BME280;29610;49.022;12.114;2023-03-01T06:58:30;98371.88;;;-0.17;100.00
18795;BME280;29610;49.022;12.114;2023-03-01T07:00:59;98363.09;;;-0.01;100.00
18795;BME280;29610;49.022;12.114;2023-03-01T07:03:27;98370.09;;;-0.11;100.00
18795;BME280;29610;49.022;12.114;2023-03-01T07:05:56;98366.63;;;-0.12;100.00
18795;BME280;29610;49.022;12.114;2023-03-01T07:08:24;98367.41;;;-0.11;100.00
18795;BME280;29610;49.022;12.114;2023-03-01T07:10:55;98366.69;;;0.05;100.00
18795;BME280;29610;49.022;12.114;2023-03-01T07:13:24;98367.34;;;0.12;100.00
18795;BME280;29610;49.022;12.114;2023-03-01T07:15:54;98366.25;;;0.25;100.00
18795;BME280;29610;49.022;12.114;2023-03-01T07:18:23;98365.41;;;0.36;100.00
18795;BME280;29610;49.022;12.114;2023-03-01T07:20:52;98356.88;;;0.39;100.00
18795;BME280;29610;49.022;12.114;2023-03-01T07:23:21;98358.22;;;0.69;100.00
18795;BME280;29610;49.022;12.114;2023-03-01T07:25:53;98362.69;;;0.64;100.00
18795;BME280;29610;49.022;12.114;2023-03-01T07:28:23;98359.16;;;0.75;100.00
18795;BME280;29610;49.022;12.114;2023-03-01T07:30:51;98359.53;;;0.67;100.00
18795;BME280;29610;49.022;12.114;2023-03-01T07:33:22;98361.41;;;0.83;100.00
18795;BME280;29610;49.022;12.114;2023-03-01T07:35:56;98357.69;;;0.84;100.00
18795;BME280;29610;49.022;12.114;2023-03-01T07:38:26;98350.38;;;0.96;100.00
18795;BME280;29610;49.022;12.114;2023-03-01T07:40:59;98357.31;;;1.13;100.00
18795;BME280;29610;49.022;12.114;2023-03-01T07:43:29;98345.53;;;1.31;100.00
18795;BME280;29610;49.022;12.114;2023-03-01T07:45:59;98351.97;;;1.30;100.00
18795;BME280;29610;49.022;12.114;2023-03-01T07:48:31;98348.53;;;1.34;100.00
18795;BME280;29610;49.022;12.114;2023-03-01T07:51:00;98345.16;;;1.61;100.00
18795;BME280;29610;49.022;12.114;2023-03-01T07:53:30;98340.97;;;1.70;100.00
18795;BME280;29610;49.022;12.114;2023-03-01T07:56:03;98338.13;;;1.76;100.00
18795;BME280;29610;49.022;12.114;2023-03-01T07:58:34;98336.75;;;1.74;100.00
18795;BME280;29610;49.022;12.114;2023-03-01T08:01:03;98340.88;;;1.81;100.00
18795;BME280;29610;49.022;12.114;2023-03-01T08:03:34;98329.47;;;1.91;100.00
18795;BME280;29610;49.022;12.114;2023-03-01T08:06:04;98333.25;;;2.16;100.00
18795;BME280;29610;49.022;12.114;2023-03-01T08:08:34;98337.59;;;2.49;100.00
18795;BME280;29610;49.022;12.114;2023-03-01T08:11:06;98332.41;;;2.16;100.00
18795;BME280;29610;49.022;12.114;2023-03-01T08:13:35;98329.59;;;2.27;100.00
18795;BME280;29610;49.022;12.114;2023-03-01T08:16:06;98329.19;;;2.40;100.00
18795;BME280;29610;49.022;12.114;2023-03-01T08:18:37;98326.00;;;2.43;100.00
18795;BME280;29610;49.022;12.114;2023-03-01T08:21:08;98320.59;;;2.38;100.00
18795;BME280;29610;49.022;12.114;2023-03-01T08:23:37;98326.47;;;2.67;100.00
18795;BME280;29610;49.022;12.114;2023-03-01T08:26:10;98322.88;;;2.51;100.00
18795;BME280;29610;49.022;12.114;2023-03-01T08:28:39;98312.94;;;2.52;100.00
18795;BME280;29610;49.022;12.114;2023-03-01T08:31:17;98325.94;;;2.65;100.00
18795;BME280;29610;49.022;12.114;2023-03-01T08:33:53;98323.53;;;2.68;100.00
18795;BME280;29610;49.022;12.114;2023-03-01T08:36:24;98327.59;;;2.71;100.00
18795;BME280;29610;49.022;12.114;2023-03-01T08:38:53;98316.97;;;2.86;100.00
18795;BME280;29610;49.022;12.114;2023-03-01T08:41:22;98319.34;;;2.77;100.00
18795;BME280;29610;49.022;12.114;2023-03-01T08:43:51;98314.91;;;2.93;100.00
18795;BME280;29610;49.022;12.114;2023-03-01T08:46:26;98314.41;;;3.01;100.00
18795;BME280;29610;49.022;12.114;2023-03-01T08:48:57;98297.84;;;3.09;100.00
18795;BME280;29610;49.022;12.114;2023-03-01T08:51:26;98307.28;;;3.17;100.00
18795;BME280;29610;49.022;12.114;2023-03-01T08:53:56;98301.78;;;2.96;100.00
18795;BME280;29610;49.022;12.114;2023-03-01T08:56:24;98296.78;;;3.15;100.00
18795;BME280;29610;49.022;12.114;2023-03-01T08:58:54;98301.78;;;3.38;100.00
18795;BME280;29610;49.022;12.114;2023-03-01T09:01:23;98292.47;;;3.61;100.00
18795;BME280;29610;49.022;12.114;2023-03-01T09:03:52;98287.84;;;3.51;100.00
18795;BME280;29610;49.022;12.114;2023-03-01T09:06:22;98283.50;;;3.40;100.00
18795;BME280;29610;49.022;12.114;2023-03-01T09:08:51;98281.09;;;3.44;100.00
18795;BME280;29610;49.022;12.114;2023-03-01T09:11:21;98278.75;;;3.57;100.00
18795;BME280;29610;49.022;12.114;2023-03-01T09:13:51;98275.53;;;3.55;100.00
18795;BME280;29610;49.022;12.114;2023-03-01T09:16:21;98264.00;;;3.65;100.00
18795;BME280;29610;49.022;12.114;2023-03-01T09:18:52;98271.78;;;3.61;100.00
18795;BME280;29610;49.022;12.114;2023-03-01T09:21:23;98275.63;;;3.85;100.00
18795;BME280;29610;49.022;12.114;2023-03-01T09:24:12;98261.72;;;4.08;100.00
18795;BME280;29610;49.022;12.114;2023-03-01T09:26:42;98257.13;;;4.09;100.00
18795;BME280;29610;49.022;12.114;2023-03-01T09:29:15;98254.97;;;4.01;100.00
18795;BME280;29610;49.022;12.114;2023-03-01T09:31:44;98244.53;;;4.14;100.00
18795;BME280;29610;49.022;12.114;2023-03-01T09:34:13;98254.94;;;3.96;100.00
18795;BME280;29610;49.022;12.114;2023-03-01T09:36:44;98245.34;;;4.30;100.00
18795;BME280;29610;49.022;12.114;2023-03-01T09:39:13;98248.84;;;4.30;100.00
18795;BME280;29610;49.022;12.114;2023-03-01T09:41:50;98246.97;;;4.36;100.00
18795;BME280;29610;49.022;12.114;2023-03-01T09:44:34;98252.63;;;4.44;100.00
18795;BME280;29610;49.022;12.114;2023-03-01T09:47:13;98243.19;;;4.42;100.00
18795;BME280;29610;49.022;12.114;2023-03-01T09:49:52;98244.56;;;4.49;100.00
18795;BME280;29610;49.022;12.114;2023-03-01T09:52:34;98251.56;;;4.71;100.00
18795;BME280;29610;49.022;12.114;2023-03-01T09:55:11;98241.31;;;4.68;100.00
18795;BME280;29610;49.022;12.114;2023-03-01T09:57:48;98248.84;;;4.86;100.00
18795;BME280;29610;49.022;12.114;2023-03-01T10:00:39;98243.72;;;4.89;100.00
18795;BME280;29610;49.022;12.114;2023-03-01T10:03:17;98233.78;;;4.85;100.00
18795;BME280;29610;49.022;12.114;2023-03-01T10:05:59;98236.97;;;4.97;100.00
18795;BME280;29610;49.022;12.114;2023-03-01T10:08:47;98236.97;;;4.97;100.00
18795;BME280;29610;49.022;12.114;2023-03-01T10:11:21;98226.19;;;4.97;100.00
18795;BME280;29610;49.022;12.114;2023-03-01T10:13:59;98216.44;;;5.26;100.00
18795;BME280;29610;49.022;12.114;2023-03-01T10:16:40;98214.50;;;5.41;100.00
18795;BME280;29610;49.022;12.114;2023-03-01T10:19:16;98210.97;;;5.46;100.00
18795;BME280;29610;49.022;12.114;2023-03-01T10:21:51;98206.91;;;5.53;100.00
18795;BME280;29610;49.022;12.114;2023-03-01T10:24:21;98202.59;;;5.47;100.00
18795;BME280;29610;49.022;12.114;2023-03-01T10:26:55;98204.00;;;5.40;100.00
18795;BME280;29610;49.022;12.114;2023-03-01T10:29:31;98202.53;;;5.67;100.00
18795;BME280;29610;49.022;12.114;2023-03-01T10:32:04;98198.44;;;5.75;100.00
18795;BME280;29610;49.022;12.114;2023-03-01T10:34:36;98184.41;;;5.83;100.00
18795;BME280;29610;49.022;12.114;2023-03-01T10:37:14;98180.38;;;5.75;100.00
18795;BME280;29610;49.022;12.114;2023-03-01T10:40:01;98186.66;;;5.61;100.00
18795;BME280;29610;49.022;12.114;2023-03-01T10:42:36;98177.91;;;5.84;100.00
18795;BME280;29610;49.022;12.114;2023-03-01T10:45:35;98174.47;;;6.17;100.00
18795;BME280;29610;49.022;12.114;2023-03-01T10:48:11;98163.03;;;6.30;100.00
18795;BME280;29610;49.022;12.114;2023-03-01T10:50:43;98154.09;;;6.35;100.00
18795;BME280;29610;49.022;12.114;2023-03-01T10:53:26;98157.59;;;6.64;100.00
18795;BME280;29610;49.022;12.114;2023-03-01T10:56:02;98147.50;;;6.74;100.00
18795;BME280;29610;49.022;12.114;2023-03-01T10:58:33;98148.53;;;6.50;100.00
18795;BME280;29610;49.022;12.114;2023-03-01T11:01:04;98148.41;;;6.65;100.00
18795;BME280;29610;49.022;12.114;2023-03-01T11:03:36;98147.91;;;6.86;100.00
18795;BME280;29610;49.022;12.114;2023-03-01T11:06:21;98135.34;;;7.00;100.00
18795;BME280;29610;49.022;12.114;2023-03-01T11:08:50;98133.28;;;7.16;100.00
18795;BME280;29610;49.022;12.114;2023-03-01T11:11:31;98134.75;;;7.27;100.00
18795;BME280;29610;49.022;12.114;2023-03-01T11:14:07;98133.31;;;7.34;100.00
18795;BME280;29610;49.022;12.114;2023-03-01T11:17:01;98124.78;;;7.65;100.00
18795;BME280;29610;49.022;12.114;2023-03-01T11:19:31;98115.94;;;7.59;100.00
18795;BME280;29610;49.022;12.114;2023-03-01T11:22:05;98111.97;;;7.33;100.00
18795;BME280;29610;49.022;12.114;2023-03-01T11:24:41;98110.00;;;7.38;100.00
18795;BME280;29610;49.022;12.114;2023-03-01T11:27:19;98117.78;;;7.45;100.00
18795;BME280;29610;49.022;12.114;2023-03-01T11:29:55;98106.13;;;7.44;100.00
18795;BME280;29610;49.022;12.114;2023-03-01T11:32:34;98094.31;;;7.59;100.00
18795;BME280;29610;49.022;12.114;2023-03-01T11:35:09;98090.16;;;8.17;100.00
18795;BME280;29610;49.022;12.114;2023-03-01T11:37:53;98095.13;;;8.29;100.00
18795;BME280;29610;49.022;12.114;2023-03-01T11:40:28;98076.59;;;8.17;100.00
18795;BME280;29610;49.022;12.114;2023-03-01T11:43:16;98066.47;;;8.41;100.00
18795;BME280;29610;49.022;12.114;2023-03-01T11:49:40;98071.88;;;8.28;100.00
18795;BME280;29610;49.022;12.114;2023-03-01T11:52:27;98061.34;;;8.26;100.00
18795;BME280;29610;49.022;12.114;2023-03-01T11:55:27;98053.75;;;8.42;100.00
18795;BME280;29610;49.022;12.114;2023-03-01T11:58:27;98060.06;;;8.51;100.00
18795;BME280;29610;49.022;12.114;2023-03-01T12:01:21;98059.47;;;8.40;100.00
18795;BME280;29610;49.022;12.114;2023-03-01T12:04:36;98050.06;;;8.51;100.00
18795;BME280;29610;49.022;12.114;2023-03-01T12:07:26;98041.09;;;8.37;100.00
18795;BME280;29610;49.022;12.114;2023-03-01T12:10:20;98044.47;;;8.61;100.00
18795;BME280;29610;49.022;12.114;2023-03-01T12:13:22;98034.81;;;8.82;100.00
18795;BME280;29610;49.022;12.114;2023-03-01T12:16:24;98036.78;;;9.18;100.00
18795;BME280;29610;49.022;12.114;2023-03-01T12:19:31;98035.91;;;9.58;100.00
18795;BME280;29610;49.022;12.114;2023-03-01T12:22:17;98028.94;;;9.16;100.00
18795;BME280;29610;49.022;12.114;2023-03-01T12:25:27;98020.13;;;8.43;100.00
18795;BME280;29610;49.022;12.114;2023-03-01T12:28:29;98022.47;;;8.76;100.00
18795;BME280;29610;49.022;12.114;2023-03-01T12:31:33;98017.56;;;8.78;100.00
18795;BME280;29610;49.022;12.114;2023-03-01T12:34:26;98008.00;;;8.95;100.00
18795;BME280;29610;49.022;12.114;2023-03-01T12:37:21;98004.38;;;8.85;100.00
18795;BME280;29610;49.022;12.114;2023-03-01T12:43:03;98004.56;;;9.52;100.00
18795;BME280;29610;49.022;12.114;2023-03-01T12:45:59;97997.78;;;9.63;100.00
18795;BME280;29610;49.022;12.114;2023-03-01T12:48:43;98008.72;;;9.49;100.00
18795;BME280;29610;49.022;12.114;2023-03-01T12:51:22;98001.06;;;9.73;100.00
18795;BME280;29610;49.022;12.114;2023-03-01T12:53:54;98002.47;;;9.71;100.00
18795;BME280;29610;49.022;12.114;2023-03-01T12:56:28;98002.78;;;9.47;100.00
18795;BME280;29610;49.022;12.114;2023-03-01T12:59:07;97994.25;;;9.05;100.00
18795;BME280;29610;49.022;12.114;2023-03-01T13:01:52;97986.41;;;9.03;100.00
18795;BME280;29610;49.022;12.114;2023-03-01T13:04:45;97966.50;;;9.43;100.00
18795;BME280;29610;49.022;12.114;2023-03-01T13:07:28;97977.09;;;9.31;100.00
18795;BME280;29610;49.022;12.114;2023-03-01T13:10:14;97979.41;;;9.38;100.00
18795;BME280;29610;49.022;12.114;2023-03-01T13:13:03;97971.31;;;9.46;100.00
18795;BME280;29610;49.022;12.114;2023-03-01T13:15:39;97975.31;;;9.27;100.00
18795;BME280;29610;49.022;12.114;2023-03-01T13:18:33;97970.69;;;9.27;100.00
18795;BME280;29610;49.022;12.114;2023-03-01T13:21:06;97977.84;;;9.23;100.00
18795;BME280;29610;49.022;12.114;2023-03-01T13:23:37;97965.16;;;9.54;100.00
18795;BME280;29610;49.022;12.114;2023-03-01T13:26:14;97970.16;;;10.05;100.00
18795;BME280;29610;49.022;12.114;2023-03-01T13:29:00;97968.25;;;9.61;100.00